sensor_id;sensor_type;location;lat;lon;timestamp;temperature;humidity
14349;DHT22;7258;50.376;8.742;2022-11-24T00:01:52;4.60;99.90
14349;DHT22;7258;50.376;8.742;2022-11-24T00:03:59;4.60;99.90
14349;DHT22;7258;50.376;8.742;2022-11-24T00:06:03;4.60;99.90
14349;DHT22;7258;50.376;8.742;2022-11-24T00:08:07;4.50;99.90
14349;DHT22;7258;50.376;8.742;2022-11-24T00:10:10;4.50;99.90
14349;DHT22;7258;50.376;8.742;2022-11-24T00:12:13;4.50;99.90
14349;DHT22;7258;50.376;8.742;2022-11-24T00:14:16;4.40;99.90
14349;DHT22;7258;50.376;8.742;2022-11-24T00:16:21;4.40;99.90
14349;DHT22;7258;50.376;8.742;2022-11-24T00:18:24;4.40;99.90
14349;DHT22;7258;50.376;8.742;2022-11-24T00:20:39;4.50;99.90
14349;DHT22;7258;50.376;8.742;2022-11-24T00:22:42;4.50;99.90
14349;DHT22;7258;50.376;8.742;2022-11-24T00:24:44;4.50;99.90
14349;DHT22;7258;50.376;8.742;2022-11-24T00:26:47;4.60;99.90
14349;DHT22;7258;50.376;8.742;2022-11-24T00:28:51;4.70;99.90
14349;DHT22;7258;50.376;8.742;2022-11-24T00:30:54;4.80;99.90
14349;DHT22;7258;50.376;8.742;2022-11-24T00:32:59;4.90;99.90
14349;DHT22;7258;50.376;8.742;2022-11-24T00:35:02;4.90;99.90
14349;DHT22;7258;50.376;8.742;2022-11-24T00:37:05;5.00;99.90
14349;DHT22;7258;50.376;8.742;2022-11-24T00:39:10;5.10;99.90
14349;DHT22;7258;50.376;8.742;2022-11-24T00:41:13;5.10;99.90
14349;DHT22;7258;50.376;8.742;2022-11-24T00:43:16;5.20;99.90
14349;DHT22;7258;50.376;8.742;2022-11-24T00:45:19;5.20;99.90
14349;DHT22;7258;50.376;8.742;2022-11-24T00:47:22;5.30;99.90
14349;DHT22;7258;50.376;8.742;2022-11-24T00:49:26;5.30;99.90
14349;DHT22;7258;50.376;8.742;2022-11-24T00:51:29;5.30;99.90
14349;DHT22;7258;50.376;8.742;2022-11-24T00:53:33;5.30;99.90
14349;DHT22;7258;50.376;8.742;2022-11-24T00:55:36;5.30;99.90
14349;DHT22;7258;50.376;8.742;2022-11-24T00:57:38;5.30;99.90
14349;DHT22;7258;50.376;8.742;2022-11-24T00:59:41;5.30;99.90
14349;DHT22;7258;50.376;8.742;2022-11-24T01:01:44;5.30;99.90
14349;DHT22;7258;50.376;8.742;2022-11-24T01:03:47;5.30;99.90
14349;DHT22;7258;50.376;8.742;2022-11-24T01:05:51;5.30;99.90
14349;DHT22;7258;50.376;8.742;2022-11-24T01:07:54;5.30;99.90
14349;DHT22;7258;50.376;8.742;2022-11-24T01:09:57;5.30;99.90
14349;DHT22;7258;50.376;8.742;2022-11-24T01:12:00;5.30;99.90
14349;DHT22;7258;50.376;8.742;2022-11-24T01:14:03;5.20;99.90
14349;DHT22;7258;50.376;8.742;2022-11-24T01:16:11;5.20;99.90
14349;DHT22;7258;50.376;8.742;2022-11-24T01:18:14;5.20;99.90
14349;DHT22;7258;50.376;8.742;2022-11-24T01:20:17;5.10;99.90
14349;DHT22;7258;50.376;8.742;2022-11-24T01:22:22;5.10;99.90
14349;DHT22;7258;50.376;8.742;2022-11-24T01:24:26;5.10;99.90
14349;DHT22;7258;50.376;8.742;2022-11-24T01:26:29;5.10;99.90
14349;DHT22;7258;50.376;8.742;2022-11-24T01:28:33;5.10;99.90
14349;DHT22;7258;50.376;8.742;2022-11-24T01:30:36;5.10;99.90
14349;DHT22;7258;50.376;8.742;2022-11-24T01:32:38;5.10;99.90
14349;DHT22;7258;50.376;8.742;2022-11-24T01:34:42;5.10;99.90
14349;DHT22;7258;50.376;8.742;2022-11-24T01:36:44;5.10;99.90
14349;DHT22;7258;50.376;8.742;2022-11-24T01:38:49;5.10;99.90
14349;DHT22;7258;50.376;8.742;2022-11-24T01:40:59;5.10;99.90
14349;DHT22;7258;50.376;8.742;2022-11-24T01:43:17;5.10;99.90
14349;DHT22;7258;50.376;8.742;2022-11-24T01:45:28;5.00;99.90
14349;DHT22;7258;50.376;8.742;2022-11-24T01:47:35;5.00;99.90
14349;DHT22;7258;50.376;8.742;2022-11-24T01:49:42;5.00;99.90
14349;DHT22;7258;50.376;8.742;2022-11-24T01:51:49;4.90;99.90
14349;DHT22;7258;50.376;8.742;2022-11-24T01:53:58;4.90;99.90
14349;DHT22;7258;50.376;8.742;2022-11-24T01:56:03;4.90;99.90
14349;DHT22;7258;50.376;8.742;2022-11-24T01:58:10;4.90;99.90
14349;DHT22;7258;50.376;8.742;2022-11-24T02:00:14;4.90;99.90
14349;DHT22;7258;50.376;8.742;2022-11-24T02:02:18;4.90;99.90
14349;DHT22;7258;50.376;8.742;2022-11-24T02:04:24;4.80;99.90
14349;DHT22;7258;50.376;8.742;2022-11-24T02:06:29;4.80;99.90
14349;DHT22;7258;50.376;8.742;2022-11-24T02:08:38;4.80;99.90
14349;DHT22;7258;50.376;8.742;2022-11-24T02:10:45;4.80;99.90
14349;DHT22;7258;50.376;8.742;2022-11-24T02:12:51;4.80;99.90
14349;DHT22;7258;50.376;8.742;2022-11-24T02:14:55;4.90;99.90
14349;DHT22;7258;50.376;8.742;2022-11-24T02:16:59;4.90;99.90
14349;DHT22;7258;50.376;8.742;2022-11-24T02:19:04;5.00;99.90
14349;DHT22;7258;50.376;8.742;2022-11-24T02:21:10;5.10;99.90
14349;DHT22;7258;50.376;8.742;2022-11-24T02:23:19;5.20;99.90
14349;DHT22;7258;50.376;8.742;2022-11-24T02:25:29;5.20;99.90
14349;DHT22;7258;50.376;8.742;2022-11-24T02:27:35;5.30;99.90
14349;DHT22;7258;50.376;8.742;2022-11-24T02:29:39;5.30;99.90
14349;DHT22;7258;50.376;8.742;2022-11-24T02:31:45;5.40;99.90
14349;DHT22;7258;50.376;8.742;2022-11-24T02:33:49;5.40;99.90
14349;DHT22;7258;50.376;8.742;2022-11-24T02:35:52;5.40;99.90
14349;DHT22;7258;50.376;8.742;2022-11-24T02:37:55;5.50;99.90
14349;DHT22;7258;50.376;8.742;2022-11-24T02:39:58;5.50;99.90
14349;DHT22;7258;50.376;8.742;2022-11-24T02:42:05;5.40;99.90
14349;DHT22;7258;50.376;8.742;2022-11-24T02:44:13;5.40;99.90
14349;DHT22;7258;50.376;8.742;2022-11-24T02:46:17;5.40;99.90
14349;DHT22;7258;50.376;8.742;2022-11-24T02:48:20;5.40;99.90
14349;DHT22;7258;50.376;8.742;2022-11-24T02:50:23;5.40;99.90
14349;DHT22;7258;50.376;8.742;2022-11-24T02:52:26;5.40;99.90
14349;DHT22;7258;50.376;8.742;2022-11-24T02:54:29;5.40;99.90
14349;DHT22;7258;50.376;8.742;2022-11-24T02:56:32;5.50;99.90
14349;DHT22;7258;50.376;8.742;2022-11-24T02:58:35;5.50;99.90
14349;DHT22;7258;50.376;8.742;2022-11-24T03:00:40;5.60;99.90
14349;DHT22;7258;50.376;8.742;2022-11-24T03:02:43;5.60;99.90
14349;DHT22;7258;50.376;8.742;2022-11-24T03:04:46;5.60;99.90
14349;DHT22;7258;50.376;8.742;2022-11-24T03:06:49;5.70;99.90
14349;DHT22;7258;50.376;8.742;2022-11-24T03:08:51;5.70;99.90
14349;DHT22;7258;50.376;8.742;2022-11-24T03:10:54;5.70;99.90
14349;DHT22;7258;50.376;8.742;2022-11-24T03:12:57;5.80;99.90
14349;DHT22;7258;50.376;8.742;2022-11-24T03:15:00;5.70;99.90
14349;DHT22;7258;50.376;8.742;2022-11-24T03:17:05;5.70;99.90
14349;DHT22;7258;50.376;8.742;2022-11-24T03:19:08;5.70;99.90
14349;DHT22;7258;50.376;8.742;2022-11-24T03:21:10;5.70;99.90
14349;DHT22;7258;50.376;8.742;2022-11-24T03:23:13;5.60;99.90
14349;DHT22;7258;50.376;8.742;2022-11-24T03:25:16;5.50;99.90
14349;DHT22;7258;50.376;8.742;2022-11-24T03:27:19;5.50;99.90
14349;DHT22;7258;50.376;8.742;2022-11-24T03:29:22;5.50;99.90
14349;DHT22;7258;50.376;8.742;2022-11-24T03:31:25;5.50;99.90
14349;DHT22;7258;50.376;8.742;2022-11-24T03:33:29;5.60;99.90
14349;DHT22;7258;50.376;8.742;2022-11-24T03:35:32;5.60;99.90
14349;DHT22;7258;50.376;8.742;2022-11-24T03:37:35;5.60;99.90
14349;DHT22;7258;50.376;8.742;2022-11-24T03:39:38;5.60;99.90
14349;DHT22;7258;50.376;8.742;2022-11-24T03:41:40;5.50;99.90
14349;DHT22;7258;50.376;8.742;2022-11-24T03:43:43;5.50;99.90
14349;DHT22;7258;50.376;8.742;2022-11-24T03:45:47;5.50;99.90
14349;DHT22;7258;50.376;8.742;2022-11-24T03:47:50;5.40;99.90
14349;DHT22;7258;50.376;8.742;2022-11-24T03:49:54;5.40;99.90
14349;DHT22;7258;50.376;8.742;2022-11-24T03:51:57;5.40;99.90
14349;DHT22;7258;50.376;8.742;2022-11-24T03:54:07;5.30;99.90
14349;DHT22;7258;50.376;8.742;2022-11-24T03:56:10;5.30;99.90
14349;DHT22;7258;50.376;8.742;2022-11-24T03:58:12;5.30;99.90
14349;DHT22;7258;50.376;8.742;2022-11-24T04:00:16;5.20;99.90
14349;DHT22;7258;50.376;8.742;2022-11-24T04:02:19;5.10;99.90
14349;DHT22;7258;50.376;8.742;2022-11-24T04:04:22;5.10;99.90
14349;DHT22;7258;50.376;8.742;2022-11-24T04:06:26;5.00;99.90
14349;DHT22;7258;50.376;8.742;2022-11-24T04:08:29;5.00;99.90
14349;DHT22;7258;50.376;8.742;2022-11-24T04:10:33;5.00;99.90
14349;DHT22;7258;50.376;8.742;2022-11-24T04:12:37;5.00;99.90
14349;DHT22;7258;50.376;8.742;2022-11-24T04:14:45;5.10;99.90
14349;DHT22;7258;50.376;8.742;2022-11-24T04:16:48;5.10;99.90
14349;DHT22;7258;50.376;8.742;2022-11-24T04:18:51;5.10;99.90
14349;DHT22;7258;50.376;8.742;2022-11-24T04:20:53;5.20;99.90
14349;DHT22;7258;50.376;8.742;2022-11-24T04:22:57;5.20;99.90
14349;DHT22;7258;50.376;8.742;2022-11-24T04:25:00;5.30;99.90
14349;DHT22;7258;50.376;8.742;2022-11-24T04:27:03;5.30;99.90
14349;DHT22;7258;50.376;8.742;2022-11-24T04:29:06;5.30;99.90
14349;DHT22;7258;50.376;8.742;2022-11-24T04:31:09;5.30;99.90
14349;DHT22;7258;50.376;8.742;2022-11-24T04:33:12;5.30;99.90
14349;DHT22;7258;50.376;8.742;2022-11-24T04:35:15;5.30;99.90
14349;DHT22;7258;50.376;8.742;2022-11-24T04:37:17;5.40;99.90
14349;DHT22;7258;50.376;8.742;2022-11-24T04:39:21;5.40;99.90
14349;DHT22;7258;50.376;8.742;2022-11-24T04:41:29;5.30;99.90
14349;DHT22;7258;50.376;8.742;2022-11-24T04:43:32;5.30;99.90
14349;DHT22;7258;50.376;8.742;2022-11-24T04:45:41;5.30;99.90
14349;DHT22;7258;50.376;8.742;2022-11-24T04:47:44;5.20;99.90
14349;DHT22;7258;50.376;8.742;2022-11-24T04:49:47;5.20;99.90
14349;DHT22;7258;50.376;8.742;2022-11-24T04:51:49;5.10;99.90
14349;DHT22;7258;50.376;8.742;2022-11-24T04:53:52;5.10;99.90
14349;DHT22;7258;50.376;8.742;2022-11-24T04:55:57;5.10;99.90
14349;DHT22;7258;50.376;8.742;2022-11-24T04:57:59;5.00;99.90
14349;DHT22;7258;50.376;8.742;2022-11-24T05:00:03;5.00;99.90
14349;DHT22;7258;50.376;8.742;2022-11-24T05:02:07;5.00;99.90
14349;DHT22;7258;50.376;8.742;2022-11-24T05:04:12;5.00;99.90
14349;DHT22;7258;50.376;8.742;2022-11-24T05:06:15;5.00;99.90
14349;DHT22;7258;50.376;8.742;2022-11-24T05:08:18;5.00;99.90
14349;DHT22;7258;50.376;8.742;2022-11-24T05:10:21;5.10;99.90
14349;DHT22;7258;50.376;8.742;2022-11-24T05:12:39;5.20;99.90
14349;DHT22;7258;50.376;8.742;2022-11-24T05:14:42;5.20;99.90
14349;DHT22;7258;50.376;8.742;2022-11-24T05:16:44;5.30;99.90
14349;DHT22;7258;50.376;8.742;2022-11-24T05:18:47;5.30;99.90
14349;DHT22;7258;50.376;8.742;2022-11-24T05:20:51;5.30;99.90
14349;DHT22;7258;50.376;8.742;2022-11-24T05:22:53;5.40;99.90
14349;DHT22;7258;50.376;8.742;2022-11-24T05:24:57;5.40;99.90
14349;DHT22;7258;50.376;8.742;2022-11-24T05:27:00;5.40;99.90
14349;DHT22;7258;50.376;8.742;2022-11-24T05:29:04;5.50;99.90
14349;DHT22;7258;50.376;8.742;2022-11-24T05:31:07;5.60;99.90
14349;DHT22;7258;50.376;8.742;2022-11-24T05:33:12;5.60;99.90
14349;DHT22;7258;50.376;8.742;2022-11-24T05:35:17;5.60;99.90
14349;DHT22;7258;50.376;8.742;2022-11-24T05:37:20;5.70;99.90
14349;DHT22;7258;50.376;8.742;2022-11-24T05:39:23;5.70;99.90
14349;DHT22;7258;50.376;8.742;2022-11-24T05:41:25;5.70;99.90
14349;DHT22;7258;50.376;8.742;2022-11-24T05:43:28;5.80;99.90
14349;DHT22;7258;50.376;8.742;2022-11-24T05:45:32;5.80;99.90
14349;DHT22;7258;50.376;8.742;2022-11-24T05:47:36;5.80;99.90
14349;DHT22;7258;50.376;8.742;2022-11-24T05:49:39;5.80;99.90
14349;DHT22;7258;50.376;8.742;2022-11-24T05:51:41;5.90;99.90
14349;DHT22;7258;50.376;8.742;2022-11-24T05:53:44;5.90;99.90
14349;DHT22;7258;50.376;8.742;2022-11-24T05:55:47;5.90;99.90
14349;DHT22;7258;50.376;8.742;2022-11-24T05:57:57;5.90;99.90
14349;DHT22;7258;50.376;8.742;2022-11-24T05:59:59;5.90;99.90
14349;DHT22;7258;50.376;8.742;2022-11-24T06:02:03;6.00;99.90
14349;DHT22;7258;50.376;8.742;2022-11-24T06:04:06;6.00;99.90
14349;DHT22;7258;50.376;8.742;2022-11-24T06:06:09;6.00;99.90
14349;DHT22;7258;50.376;8.742;2022-11-24T06:08:12;6.00;99.90
14349;DHT22;7258;50.376;8.742;2022-11-24T06:10:15;6.10;99.90
14349;DHT22;7258;50.376;8.742;2022-11-24T06:12:18;6.10;99.90
14349;DHT22;7258;50.376;8.742;2022-11-24T06:14:21;6.20;99.90
14349;DHT22;7258;50.376;8.742;2022-11-24T06:16:24;6.30;99.90
14349;DHT22;7258;50.376;8.742;2022-11-24T06:18:29;6.40;99.90
14349;DHT22;7258;50.376;8.742;2022-11-24T06:20:31;6.40;99.90
14349;DHT22;7258;50.376;8.742;2022-11-24T06:22:34;6.50;99.90
14349;DHT22;7258;50.376;8.742;2022-11-24T06:24:37;6.50;99.90
14349;DHT22;7258;50.376;8.742;2022-11-24T06:26:40;6.50;99.90
14349;DHT22;7258;50.376;8.742;2022-11-24T06:28:43;6.60;99.90
14349;DHT22;7258;50.376;8.742;2022-11-24T06:30:46;6.60;99.90
14349;DHT22;7258;50.376;8.742;2022-11-24T06:32:53;6.60;99.90
14349;DHT22;7258;50.376;8.742;2022-11-24T06:34:57;6.60;99.90
14349;DHT22;7258;50.376;8.742;2022-11-24T06:37:00;6.60;99.90
14349;DHT22;7258;50.376;8.742;2022-11-24T06:39:04;6.50;99.90
14349;DHT22;7258;50.376;8.742;2022-11-24T06:41:11;6.60;99.90
14349;DHT22;7258;50.376;8.742;2022-11-24T06:43:13;6.50;99.90
14349;DHT22;7258;50.376;8.742;2022-11-24T06:45:16;6.60;99.90
14349;DHT22;7258;50.376;8.742;2022-11-24T06:47:19;6.50;99.90
14349;DHT22;7258;50.376;8.742;2022-11-24T06:49:22;6.50;99.90
14349;DHT22;7258;50.376;8.742;2022-11-24T06:51:26;6.60;99.90
14349;DHT22;7258;50.376;8.742;2022-11-24T06:53:29;6.60;99.90
14349;DHT22;7258;50.376;8.742;2022-11-24T06:55:32;6.60;99.90
14349;DHT22;7258;50.376;8.742;2022-11-24T06:57:35;6.60;99.90
14349;DHT22;7258;50.376;8.742;2022-11-24T06:59:37;6.60;99.90
14349;DHT22;7258;50.376;8.742;2022-11-24T07:01:40;6.60;99.90
14349;DHT22;7258;50.376;8.742;2022-11-24T07:03:43;6.60;99.90
14349;DHT22;7258;50.376;8.742;2022-11-24T07:05:46;6.60;99.90
14349;DHT22;7258;50.376;8.742;2022-11-24T07:07:50;6.60;99.90
14349;DHT22;7258;50.376;8.742;2022-11-24T07:09:53;6.60;99.90
14349;DHT22;7258;50.376;8.742;2022-11-24T07:11:56;6.60;99.90
14349;DHT22;7258;50.376;8.742;2022-11-24T07:13:58;6.60;99.90
14349;DHT22;7258;50.376;8.742;2022-11-24T07:16:10;6.70;99.90
14349;DHT22;7258;50.376;8.742;2022-11-24T07:18:13;6.70;99.90
14349;DHT22;7258;50.376;8.742;2022-11-24T07:20:16;6.70;99.90
14349;DHT22;7258;50.376;8.742;2022-11-24T07:22:18;6.70;99.90
14349;DHT22;7258;50.376;8.742;2022-11-24T07:24:23;6.80;99.90
14349;DHT22;7258;50.376;8.742;2022-11-24T07:26:26;6.70;99.90
14349;DHT22;7258;50.376;8.742;2022-11-24T07:28:29;6.80;99.90
14349;DHT22;7258;50.376;8.742;2022-11-24T07:30:31;6.80;99.90
14349;DHT22;7258;50.376;8.742;2022-11-24T07:32:34;6.80;99.90
14349;DHT22;7258;50.376;8.742;2022-11-24T07:34:40;6.80;99.90
14349;DHT22;7258;50.376;8.742;2022-11-24T07:36:43;6.80;99.90
14349;DHT22;7258;50.376;8.742;2022-11-24T07:38:46;6.80;99.90
14349;DHT22;7258;50.376;8.742;2022-11-24T07:40:50;6.90;99.90
14349;DHT22;7258;50.376;8.742;2022-11-24T07:42:53;6.90;99.90
14349;DHT22;7258;50.376;8.742;2022-11-24T07:44:56;7.00;99.90
14349;DHT22;7258;50.376;8.742;2022-11-24T07:46:59;7.00;99.90
14349;DHT22;7258;50.376;8.742;2022-11-24T07:49:02;7.00;99.90
14349;DHT22;7258;50.376;8.742;2022-11-24T07:51:05;7.10;99.90
14349;DHT22;7258;50.376;8.742;2022-11-24T07:53:08;7.10;99.90
14349;DHT22;7258;50.376;8.742;2022-11-24T07:55:11;7.10;99.90
14349;DHT22;7258;50.376;8.742;2022-11-24T07:57:15;7.10;99.90
14349;DHT22;7258;50.376;8.742;2022-11-24T07:59:18;7.10;99.90
14349;DHT22;7258;50.376;8.742;2022-11-24T08:01:21;7.10;99.90
14349;DHT22;7258;50.376;8.742;2022-11-24T08:03:24;7.10;99.90
14349;DHT22;7258;50.376;8.742;2022-11-24T08:05:27;7.10;99.90
14349;DHT22;7258;50.376;8.742;2022-11-24T08:07:31;7.20;99.90
14349;DHT22;7258;50.376;8.742;2022-11-24T08:09:34;7.20;99.90
14349;DHT22;7258;50.376;8.742;2022-11-24T08:11:37;7.20;99.90
14349;DHT22;7258;50.376;8.742;2022-11-24T08:13:41;7.20;99.90
14349;DHT22;7258;50.376;8.742;2022-11-24T08:15:44;7.30;99.90
14349;DHT22;7258;50.376;8.742;2022-11-24T08:17:47;7.30;99.90
14349;DHT22;7258;50.376;8.742;2022-11-24T08:19:50;7.30;99.90
14349;DHT22;7258;50.376;8.742;2022-11-24T08:21:53;7.30;99.90
14349;DHT22;7258;50.376;8.742;2022-11-24T08:23:56;7.30;99.90
14349;DHT22;7258;50.376;8.742;2022-11-24T08:26:03;7.30;99.90
14349;DHT22;7258;50.376;8.742;2022-11-24T08:28:05;7.40;99.90
14349;DHT22;7258;50.376;8.742;2022-11-24T08:30:11;7.30;99.90
14349;DHT22;7258;50.376;8.742;2022-11-24T08:32:14;7.40;99.90
14349;DHT22;7258;50.376;8.742;2022-11-24T08:34:23;7.40;99.90
14349;DHT22;7258;50.376;8.742;2022-11-24T08:36:28;7.40;99.90
14349;DHT22;7258;50.376;8.742;2022-11-24T08:38:32;7.40;99.90
14349;DHT22;7258;50.376;8.742;2022-11-24T08:40:35;7.40;99.90
14349;DHT22;7258;50.376;8.742;2022-11-24T08:42:37;7.40;99.90
14349;DHT22;7258;50.376;8.742;2022-11-24T08:44:40;7.40;99.90
14349;DHT22;7258;50.376;8.742;2022-11-24T08:46:44;7.40;99.90
14349;DHT22;7258;50.376;8.742;2022-11-24T08:48:48;7.50;99.90
14349;DHT22;7258;50.376;8.742;2022-11-24T08:50:51;7.40;99.90
14349;DHT22;7258;50.376;8.742;2022-11-24T08:52:54;7.40;99.90
14349;DHT22;7258;50.376;8.742;2022-11-24T08:54:57;7.40;99.90
14349;DHT22;7258;50.376;8.742;2022-11-24T08:56:59;7.40;99.90
14349;DHT22;7258;50.376;8.742;2022-11-24T08:59:02;7.50;99.90
14349;DHT22;7258;50.376;8.742;2022-11-24T09:01:06;7.60;99.90
14349;DHT22;7258;50.376;8.742;2022-11-24T09:03:11;7.70;99.90
14349;DHT22;7258;50.376;8.742;2022-11-24T09:05:14;7.80;99.90
14349;DHT22;7258;50.376;8.742;2022-11-24T09:07:37;7.90;99.90
14349;DHT22;7258;50.376;8.742;2022-11-24T09:09:40;8.10;99.90
14349;DHT22;7258;50.376;8.742;2022-11-24T09:11:43;8.10;99.90
14349;DHT22;7258;50.376;8.742;2022-11-24T09:13:46;8.20;99.90
14349;DHT22;7258;50.376;8.742;2022-11-24T09:15:49;8.40;99.90
14349;DHT22;7258;50.376;8.742;2022-11-24T09:17:52;8.50;99.90
14349;DHT22;7258;50.376;8.742;2022-11-24T09:19:56;8.70;99.90
14349;DHT22;7258;50.376;8.742;2022-11-24T09:21:59;8.70;99.90
14349;DHT22;7258;50.376;8.742;2022-11-24T09:24:03;8.70;99.90
14349;DHT22;7258;50.376;8.742;2022-11-24T09:26:07;8.70;99.90
14349;DHT22;7258;50.376;8.742;2022-11-24T09:28:10;8.70;99.90
14349;DHT22;7258;50.376;8.742;2022-11-24T09:30:13;8.70;99.90
14349;DHT22;7258;50.376;8.742;2022-11-24T09:32:16;8.70;99.90
14349;DHT22;7258;50.376;8.742;2022-11-24T09:34:19;8.80;99.90
14349;DHT22;7258;50.376;8.742;2022-11-24T09:36:24;8.80;99.90
14349;DHT22;7258;50.376;8.742;2022-11-24T09:38:27;8.90;99.90
14349;DHT22;7258;50.376;8.742;2022-11-24T09:40:30;8.80;99.90
14349;DHT22;7258;50.376;8.742;2022-11-24T09:42:37;8.80;99.90
14349;DHT22;7258;50.376;8.742;2022-11-24T09:44:53;8.80;99.90
14349;DHT22;7258;50.376;8.742;2022-11-24T09:47:04;8.80;99.90
14349;DHT22;7258;50.376;8.742;2022-11-24T09:49:11;8.90;99.90
14349;DHT22;7258;50.376;8.742;2022-11-24T09:51:23;8.90;99.90
14349;DHT22;7258;50.376;8.742;2022-11-24T09:53:34;9.00;99.90
14349;DHT22;7258;50.376;8.742;2022-11-24T09:55:42;9.00;99.90
14349;DHT22;7258;50.376;8.742;2022-11-24T09:57:50;9.10;99.90
14349;DHT22;7258;50.376;8.742;2022-11-24T09:59:58;9.10;99.90
14349;DHT22;7258;50.376;8.742;2022-11-24T10:02:09;8.90;99.90
14349;DHT22;7258;50.376;8.742;2022-11-24T10:04:16;8.90;99.90
14349;DHT22;7258;50.376;8.742;2022-11-24T10:06:23;9.00;99.90
14349;DHT22;7258;50.376;8.742;2022-11-24T10:08:45;8.90;99.90
14349;DHT22;7258;50.376;8.742;2022-11-24T10:10:55;8.90;99.90
14349;DHT22;7258;50.376;8.742;2022-11-24T10:13:06;9.00;99.90
14349;DHT22;7258;50.376;8.742;2022-11-24T10:15:32;9.00;99.90
14349;DHT22;7258;50.376;8.742;2022-11-24T10:17:49;9.10;99.90
14349;DHT22;7258;50.376;8.742;2022-11-24T10:19:56;9.10;99.90
14349;DHT22;7258;50.376;8.742;2022-11-24T10:22:17;9.20;99.90
14349;DHT22;7258;50.376;8.742;2022-11-24T10:25:00;9.10;99.90
14349;DHT22;7258;50.376;8.742;2022-11-24T10:27:13;9.00;99.90
14349;DHT22;7258;50.376;8.742;2022-11-24T10:29:22;9.00;99.90
14349;DHT22;7258;50.376;8.742;2022-11-24T10:31:29;9.00;99.90
14349;DHT22;7258;50.376;8.742;2022-11-24T10:33:34;8.90;99.90
14349;DHT22;7258;50.376;8.742;2022-11-24T10:35:46;8.90;99.90
14349;DHT22;7258;50.376;8.742;2022-11-24T10:38:01;8.90;99.90
14349;DHT22;7258;50.376;8.742;2022-11-24T10:40:13;8.90;99.90
14349;DHT22;7258;50.376;8.742;2022-11-24T10:42:40;9.10;99.90
14349;DHT22;7258;50.376;8.742;2022-11-24T10:44:44;9.10;99.90
14349;DHT22;7258;50.376;8.742;2022-11-24T10:46:47;9.20;99.90
14349;DHT22;7258;50.376;8.742;2022-11-24T10:48:52;9.20;99.90
14349;DHT22;7258;50.376;8.742;2022-11-24T10:51:07;9.30;99.90
14349;DHT22;7258;50.376;8.742;2022-11-24T10:53:22;9.20;99.90
14349;DHT22;7258;50.376;8.742;2022-11-24T10:55:58;9.30;99.90
14349;DHT22;7258;50.376;8.742;2022-11-24T10:58:14;9.30;99.90
14349;DHT22;7258;50.376;8.742;2022-11-24T11:00:29;9.40;99.90
14349;DHT22;7258;50.376;8.742;2022-11-24T11:02:37;9.50;99.90
14349;DHT22;7258;50.376;8.742;2022-11-24T11:04:40;9.40;99.90
14349;DHT22;7258;50.376;8.742;2022-11-24T11:06:45;9.40;99.90
14349;DHT22;7258;50.376;8.742;2022-11-24T11:08:48;9.50;99.90
14349;DHT22;7258;50.376;8.742;2022-11-24T11:11:12;9.50;99.90
14349;DHT22;7258;50.376;8.742;2022-11-24T11:13:24;9.50;99.90
14349;DHT22;7258;50.376;8.742;2022-11-24T11:15:29;9.30;99.90
14349;DHT22;7258;50.376;8.742;2022-11-24T11:17:34;9.30;99.90
14349;DHT22;7258;50.376;8.742;2022-11-24T11:19:39;9.30;99.90
14349;DHT22;7258;50.376;8.742;2022-11-24T11:21:59;9.30;99.90
14349;DHT22;7258;50.376;8.742;2022-11-24T11:24:04;9.30;99.90
14349;DHT22;7258;50.376;8.742;2022-11-24T11:26:27;9.30;99.90
14349;DHT22;7258;50.376;8.742;2022-11-24T11:28:32;9.30;99.90
14349;DHT22;7258;50.376;8.742;2022-11-24T11:30:35;9.40;99.90
14349;DHT22;7258;50.376;8.742;2022-11-24T11:32:59;9.50;99.90
14349;DHT22;7258;50.376;8.742;2022-11-24T11:35:24;9.60;99.90
14349;DHT22;7258;50.376;8.742;2022-11-24T11:37:30;9.70;99.90
14349;DHT22;7258;50.376;8.742;2022-11-24T11:39:35;9.80;99.90
14349;DHT22;7258;50.376;8.742;2022-11-24T11:41:49;10.00;99.90
14349;DHT22;7258;50.376;8.742;2022-11-24T11:44:01;10.10;99.90
14349;DHT22;7258;50.376;8.742;2022-11-24T11:46:11;10.20;99.90
14349;DHT22;7258;50.376;8.742;2022-11-24T11:48:24;10.30;99.90
14349;DHT22;7258;50.376;8.742;2022-11-24T11:50:33;10.30;99.90
14349;DHT22;7258;50.376;8.742;2022-11-24T11:53:10;10.40;99.90
14349;DHT22;7258;50.376;8.742;2022-11-24T11:55:30;10.40;99.90
14349;DHT22;7258;50.376;8.742;2022-11-24T11:57:45;10.30;99.90
14349;DHT22;7258;50.376;8.742;2022-11-24T12:00:02;10.30;99.90
14349;DHT22;7258;50.376;8.742;2022-11-24T12:02:36;10.20;99.90
14349;DHT22;7258;50.376;8.742;2022-11-24T12:04:53;10.20;99.90
14349;DHT22;7258;50.376;8.742;2022-11-24T12:07:12;10.20;99.90
14349;DHT22;7258;50.376;8.742;2022-11-24T12:09:25;10.30;99.90
14349;DHT22;7258;50.376;8.742;2022-11-24T12:11:35;10.30;99.90
14349;DHT22;7258;50.376;8.742;2022-11-24T12:13:57;10.40;99.90
14349;DHT22;7258;50.376;8.742;2022-11-24T12:16:10;10.40;99.90
14349;DHT22;7258;50.376;8.742;2022-11-24T12:18:27;10.50;99.90
14349;DHT22;7258;50.376;8.742;2022-11-24T12:21:02;10.50;99.90
14349;DHT22;7258;50.376;8.742;2022-11-24T12:23:17;10.50;99.90
14349;DHT22;7258;50.376;8.742;2022-11-24T12:25:25;10.50;99.90
14349;DHT22;7258;50.376;8.742;2022-11-24T12:27:38;10.60;99.90
14349;DHT22;7258;50.376;8.742;2022-11-24T12:30:03;10.60;99.90
14349;DHT22;7258;50.376;8.742;2022-11-24T12:32:15;10.60;99.90
14349;DHT22;7258;50.376;8.742;2022-11-24T12:34:34;10.60;99.90
14349;DHT22;7258;50.376;8.742;2022-11-24T12:36:56;10.60;99.90
14349;DHT22;7258;50.376;8.742;2022-11-24T12:39:04;10.70;99.90
14349;DHT22;7258;50.376;8.742;2022-11-24T12:41:21;10.70;99.90
14349;DHT22;7258;50.376;8.742;2022-11-24T12:43:46;10.70;99.90
14349;DHT22;7258;50.376;8.742;2022-11-24T12:45:59;10.70;99.90
14349;DHT22;7258;50.376;8.742;2022-11-24T12:48:15;10.70;99.90
14349;DHT22;7258;50.376;8.742;2022-11-24T12:50:22;10.60;99.90
14349;DHT22;7258;50.376;8.742;2022-11-24T12:52:28;10.60;99.90
14349;DHT22;7258;50.376;8.742;2022-11-24T12:54:38;10.50;99.90
14349;DHT22;7258;50.376;8.742;2022-11-24T12:56:44;10.50;99.90
14349;DHT22;7258;50.376;8.742;2022-11-24T12:58:51;10.40;99.90
14349;DHT22;7258;50.376;8.742;2022-11-24T13:01:08;10.40;99.90
14349;DHT22;7258;50.376;8.742;2022-11-24T13:03:31;10.40;99.90
14349;DHT22;7258;50.376;8.742;2022-11-24T13:05:45;10.40;99.90
14349;DHT22;7258;50.376;8.742;2022-11-24T13:07:54;10.40;99.90
14349;DHT22;7258;50.376;8.742;2022-11-24T13:10:30;10.40;99.90
14349;DHT22;7258;50.376;8.742;2022-11-24T13:12:54;10.40;99.90
14349;DHT22;7258;50.376;8.742;2022-11-24T13:14:57;10.40;99.90
14349;DHT22;7258;50.376;8.742;2022-11-24T13:17:03;10.40;99.90
14349;DHT22;7258;50.376;8.742;2022-11-24T13:19:36;10.40;99.90
14349;DHT22;7258;50.376;8.742;2022-11-24T13:21:59;10.50;99.90
14349;DHT22;7258;50.376;8.742;2022-11-24T13:24:04;10.40;99.90
14349;DHT22;7258;50.376;8.742;2022-11-24T13:26:13;10.40;99.90
14349;DHT22;7258;50.376;8.742;2022-11-24T13:31:20;10.40;99.90
14349;DHT22;7258;50.376;8.742;2022-11-24T13:33:42;10.40;99.90
14349;DHT22;7258;50.376;8.742;2022-11-24T13:38:39;10.60;99.90
14349;DHT22;7258;50.376;8.742;2022-11-24T13:40:42;10.60;99.90
14349;DHT22;7258;50.376;8.742;2022-11-24T13:43:21;10.60;99.90
14349;DHT22;7258;50.376;8.742;2022-11-24T13:45:47;10.60;99.90
14349;DHT22;7258;50.376;8.742;2022-11-24T13:47:50;10.50;99.90
14349;DHT22;7258;50.376;8.742;2022-11-24T13:49:54;10.40;99.90
14349;DHT22;7258;50.376;8.742;2022-11-24T13:52:36;10.40;99.90